sensor_id;sensor_type;location;lat;lon;timestamp;pressure;altitude;pressure_sealevel;temperature;humidity
61086;BME280;46967;48.876;2.136;2023-08-30T00:00:54;100892.41;;;42.41;14.79
61086;BME280;46967;48.876;2.136;2023-08-30T00:03:19;100891.59;;;42.63;14.25
61086;BME280;46967;48.876;2.136;2023-08-30T00:05:44;100884.81;;;42.65;14.71
61086;BME280;46967;48.876;2.136;2023-08-30T00:08:10;100887.47;;;42.60;14.75
61086;BME280;46967;48.876;2.136;2023-08-30T00:10:35;100881.44;;;42.58;14.58
61086;BME280;46967;48.876;2.136;2023-08-30T00:13:01;100877.06;;;42.57;14.49
61086;BME280;46967;48.876;2.136;2023-08-30T00:15:27;100875.28;;;42.46;14.70
61086;BME280;46967;48.876;2.136;2023-08-30T00:17:52;100872.06;;;42.49;14.63
61086;BME280;46967;48.876;2.136;2023-08-30T00:20:18;100868.63;;;42.59;14.56
61086;BME280;46967;48.876;2.136;2023-08-30T00:22:44;100866.78;;;42.64;14.47
61086;BME280;46967;48.876;2.136;2023-08-30T00:25:09;100858.63;;;42.69;14.59
61086;BME280;46967;48.876;2.136;2023-08-30T00:27:34;100859.94;;;42.62;14.81
61086;BME280;46967;48.876;2.136;2023-08-30T00:30:00;100854.09;;;42.53;14.52
61086;BME280;46967;48.876;2.136;2023-08-30T00:32:25;100858.41;;;42.49;14.43
61086;BME280;46967;48.876;2.136;2023-08-30T00:34:50;100854.84;;;42.43;14.54
61086;BME280;46967;48.876;2.136;2023-08-30T00:37:16;100843.09;;;42.43;14.78
61086;BME280;46967;48.876;2.136;2023-08-30T00:39:43;100848.88;;;42.46;14.74
61086;BME280;46967;48.876;2.136;2023-08-30T00:42:08;100851.22;;;42.65;14.91
61086;BME280;46967;48.876;2.136;2023-08-30T00:44:34;100841.72;;;42.67;14.43
61086;BME280;46967;48.876;2.136;2023-08-30T00:47:01;100832.25;;;42.75;14.96
61086;BME280;46967;48.876;2.136;2023-08-30T00:49:27;100837.44;;;42.77;14.73
61086;BME280;46967;48.876;2.136;2023-08-30T00:51:54;100831.22;;;42.81;14.80
61086;BME280;46967;48.876;2.136;2023-08-30T00:54:19;100834.97;;;42.75;14.63
61086;BME280;46967;48.876;2.136;2023-08-30T00:56:46;100831.72;;;42.78;14.44
61086;BME280;46967;48.876;2.136;2023-08-30T00:59:12;100834.19;;;42.80;14.45
61086;BME280;46967;48.876;2.136;2023-08-30T01:01:38;100822.25;;;42.86;14.76
61086;BME280;46967;48.876;2.136;2023-08-30T01:04:05;100813.75;;;42.82;14.65
61086;BME280;46967;48.876;2.136;2023-08-30T01:06:30;100814.00;;;42.81;14.52
61086;BME280;46967;48.876;2.136;2023-08-30T01:08:56;100822.41;;;42.74;14.96
61086;BME280;46967;48.876;2.136;2023-08-30T01:11:26;100813.66;;;42.72;14.95
61086;BME280;46967;48.876;2.136;2023-08-30T01:14:04;100807.22;;;42.83;14.75
61086;BME280;46967;48.876;2.136;2023-08-30T01:16:31;100803.44;;;42.89;14.39
61086;BME280;46967;48.876;2.136;2023-08-30T01:18:59;100796.59;;;42.87;14.74
61086;BME280;46967;48.876;2.136;2023-08-30T01:25:09;100802.50;;;42.74;14.93
61086;BME280;46967;48.876;2.136;2023-08-30T01:27:38;100798.47;;;42.54;14.79
61086;BME280;46967;48.876;2.136;2023-08-30T01:30:06;100796.88;;;42.26;14.76
61086;BME280;46967;48.876;2.136;2023-08-30T01:32:34;100789.81;;;42.30;14.61
61086;BME280;46967;48.876;2.136;2023-08-30T01:35:01;100793.75;;;42.44;15.13
61086;BME280;46967;48.876;2.136;2023-08-30T01:37:27;100792.69;;;42.45;15.00
61086;BME280;46967;48.876;2.136;2023-08-30T01:39:55;100790.56;;;42.20;15.02
61086;BME280;46967;48.876;2.136;2023-08-30T01:42:22;100786.53;;;42.00;14.87
61086;BME280;46967;48.876;2.136;2023-08-30T01:44:50;100782.63;;;42.18;14.63
61086;BME280;46967;48.876;2.136;2023-08-30T01:47:17;100780.47;;;41.98;14.89
61086;BME280;46967;48.876;2.136;2023-08-30T01:49:43;100775.28;;;41.97;14.99
61086;BME280;46967;48.876;2.136;2023-08-30T01:52:10;100785.09;;;41.71;14.91
61086;BME280;46967;48.876;2.136;2023-08-30T01:54:35;100779.69;;;41.76;14.97
61086;BME280;46967;48.876;2.136;2023-08-30T01:57:02;100781.31;;;41.72;15.11
61086;BME280;46967;48.876;2.136;2023-08-30T01:59:29;100781.44;;;41.65;15.05
61086;BME280;46967;48.876;2.136;2023-08-30T02:01:54;100781.19;;;41.44;15.31
61086;BME280;46967;48.876;2.136;2023-08-30T02:04:20;100784.38;;;41.58;15.10
61086;BME280;46967;48.876;2.136;2023-08-30T02:06:50;100774.88;;;41.61;15.01
61086;BME280;46967;48.876;2.136;2023-08-30T02:09:19;100781.63;;;41.58;14.97
61086;BME280;46967;48.876;2.136;2023-08-30T02:11:48;100767.31;;;41.46;15.05
61086;BME280;46967;48.876;2.136;2023-08-30T02:14:17;100767.91;;;41.09;15.18
61086;BME280;46967;48.876;2.136;2023-08-30T02:16:44;100774.19;;;40.92;15.40
61086;BME280;46967;48.876;2.136;2023-08-30T02:19:10;100771.59;;;41.20;15.27
61086;BME280;46967;48.876;2.136;2023-08-30T02:21:37;100773.81;;;41.23;15.22
61086;BME280;46967;48.876;2.136;2023-08-30T02:24:03;100773.81;;;41.23;15.15
61086;BME280;46967;48.876;2.136;2023-08-30T02:26:28;100775.25;;;41.08;15.24
61086;BME280;46967;48.876;2.136;2023-08-30T02:28:53;100772.22;;;41.27;15.07
61086;BME280;46967;48.876;2.136;2023-08-30T02:31:19;100770.69;;;41.53;15.15
61086;BME280;46967;48.876;2.136;2023-08-30T02:33:44;100773.03;;;41.44;15.22
61086;BME280;46967;48.876;2.136;2023-08-30T02:36:09;100769.13;;;41.35;15.08
61086;BME280;46967;48.876;2.136;2023-08-30T02:38:35;100762.47;;;41.48;15.36
61086;BME280;46967;48.876;2.136;2023-08-30T02:41:01;100758.22;;;41.35;15.20
61086;BME280;46967;48.876;2.136;2023-08-30T02:43:27;100748.72;;;41.60;15.20
61086;BME280;46967;48.876;2.136;2023-08-30T02:45:53;100756.69;;;41.44;15.31
61086;BME280;46967;48.876;2.136;2023-08-30T02:48:18;100752.50;;;41.59;14.95
61086;BME280;46967;48.876;2.136;2023-08-30T02:50:43;100766.19;;;40.86;15.77
61086;BME280;46967;48.876;2.136;2023-08-30T02:53:09;100758.50;;;41.00;15.74
61086;BME280;46967;48.876;2.136;2023-08-30T02:55:35;100760.69;;;40.35;16.13
61086;BME280;46967;48.876;2.136;2023-08-30T02:58:00;100765.13;;;40.87;15.82
61086;BME280;46967;48.876;2.136;2023-08-30T03:00:25;100757.78;;;41.04;15.85
61086;BME280;46967;48.876;2.136;2023-08-30T03:02:51;100759.91;;;41.41;15.77
61086;BME280;46967;48.876;2.136;2023-08-30T03:05:17;100757.63;;;41.33;15.67
61086;BME280;46967;48.876;2.136;2023-08-30T03:07:42;100751.59;;;40.41;16.64
61086;BME280;46967;48.876;2.136;2023-08-30T03:10:08;100753.66;;;40.51;16.64
61086;BME280;46967;48.876;2.136;2023-08-30T03:12:33;100758.47;;;40.32;17.06
61086;BME280;46967;48.876;2.136;2023-08-30T03:14:59;100756.31;;;40.63;16.89
61086;BME280;46967;48.876;2.136;2023-08-30T03:17:24;100744.25;;;40.59;16.74
61086;BME280;46967;48.876;2.136;2023-08-30T03:19:51;100747.78;;;40.76;16.77
61086;BME280;46967;48.876;2.136;2023-08-30T03:22:18;100745.50;;;41.41;15.98
61086;BME280;46967;48.876;2.136;2023-08-30T03:24:43;100742.75;;;41.63;15.88
61086;BME280;46967;48.876;2.136;2023-08-30T03:27:09;100740.88;;;41.41;16.13
61086;BME280;46967;48.876;2.136;2023-08-30T03:29:34;100736.63;;;41.28;16.15
61086;BME280;46967;48.876;2.136;2023-08-30T03:31:59;100730.63;;;41.09;16.64
61086;BME280;46967;48.876;2.136;2023-08-30T03:34:25;100734.38;;;41.25;16.33
61086;BME280;46967;48.876;2.136;2023-08-30T03:36:50;100734.91;;;41.44;16.55
61086;BME280;46967;48.876;2.136;2023-08-30T03:39:22;100734.50;;;41.53;16.07
61086;BME280;46967;48.876;2.136;2023-08-30T03:41:49;100733.72;;;40.96;16.82
61086;BME280;46967;48.876;2.136;2023-08-30T03:44:14;100731.25;;;40.95;16.77
61086;BME280;46967;48.876;2.136;2023-08-30T03:46:39;100733.91;;;40.89;16.76
61086;BME280;46967;48.876;2.136;2023-08-30T03:49:05;100729.69;;;41.21;16.29
61086;BME280;46967;48.876;2.136;2023-08-30T03:51:30;100729.53;;;41.27;16.33
61086;BME280;46967;48.876;2.136;2023-08-30T03:53:56;100725.34;;;41.20;16.51
61086;BME280;46967;48.876;2.136;2023-08-30T03:56:22;100727.94;;;41.32;16.44
61086;BME280;46967;48.876;2.136;2023-08-30T03:58:47;100720.03;;;41.52;16.13
61086;BME280;46967;48.876;2.136;2023-08-30T04:01:13;100720.88;;;41.53;16.25
61086;BME280;46967;48.876;2.136;2023-08-30T04:03:38;100721.50;;;41.38;16.32
61086;BME280;46967;48.876;2.136;2023-08-30T04:06:03;100732.84;;;41.13;16.66
61086;BME280;46967;48.876;2.136;2023-08-30T04:08:29;100716.53;;;41.13;16.60
61086;BME280;46967;48.876;2.136;2023-08-30T04:10:54;100717.97;;;41.59;16.20
61086;BME280;46967;48.876;2.136;2023-08-30T04:13:19;100710.00;;;40.91;16.76
61086;BME280;46967;48.876;2.136;2023-08-30T04:15:45;100707.63;;;41.39;16.29
61086;BME280;46967;48.876;2.136;2023-08-30T04:18:10;100701.81;;;41.75;15.69
61086;BME280;46967;48.876;2.136;2023-08-30T04:20:36;100711.53;;;41.93;15.84
61086;BME280;46967;48.876;2.136;2023-08-30T04:23:02;100697.75;;;41.55;16.36
61086;BME280;46967;48.876;2.136;2023-08-30T04:25:30;100703.38;;;41.26;16.26
61086;BME280;46967;48.876;2.136;2023-08-30T04:27:56;100698.03;;;41.32;16.48
61086;BME280;46967;48.876;2.136;2023-08-30T04:30:22;100695.75;;;41.45;16.13
61086;BME280;46967;48.876;2.136;2023-08-30T04:32:47;100698.88;;;41.32;16.53
61086;BME280;46967;48.876;2.136;2023-08-30T04:35:12;100689.94;;;40.98;16.58
61086;BME280;46967;48.876;2.136;2023-08-30T04:37:38;100685.31;;;41.37;16.40
61086;BME280;46967;48.876;2.136;2023-08-30T04:40:08;100689.22;;;41.24;16.49
61086;BME280;46967;48.876;2.136;2023-08-30T04:42:34;100688.53;;;41.56;16.50
61086;BME280;46967;48.876;2.136;2023-08-30T04:45:00;100693.41;;;40.93;16.76
61086;BME280;46967;48.876;2.136;2023-08-30T04:47:27;100696.25;;;41.03;16.85
61086;BME280;46967;48.876;2.136;2023-08-30T04:49:53;100695.16;;;41.21;16.58
61086;BME280;46967;48.876;2.136;2023-08-30T04:52:18;100687.69;;;41.56;16.36
61086;BME280;46967;48.876;2.136;2023-08-30T04:54:43;100691.91;;;41.69;16.12
61086;BME280;46967;48.876;2.136;2023-08-30T04:57:10;100688.22;;;41.75;16.10
61086;BME280;46967;48.876;2.136;2023-08-30T04:59:39;100687.09;;;41.09;16.50
61086;BME280;46967;48.876;2.136;2023-08-30T05:02:05;100685.38;;;41.70;16.13
61086;BME280;46967;48.876;2.136;2023-08-30T05:04:30;100681.41;;;41.77;16.35
61086;BME280;46967;48.876;2.136;2023-08-30T05:06:56;100686.25;;;41.97;15.89
61086;BME280;46967;48.876;2.136;2023-08-30T05:09:21;100681.19;;;42.11;15.84
61086;BME280;46967;48.876;2.136;2023-08-30T05:11:50;100694.16;;;41.99;15.99
61086;BME280;46967;48.876;2.136;2023-08-30T05:14:15;100687.63;;;42.27;16.07
61086;BME280;46967;48.876;2.136;2023-08-30T05:16:41;100689.69;;;42.15;15.93
61086;BME280;46967;48.876;2.136;2023-08-30T05:19:06;100691.16;;;42.28;15.75
61086;BME280;46967;48.876;2.136;2023-08-30T05:21:31;100687.66;;;42.32;15.68
61086;BME280;46967;48.876;2.136;2023-08-30T05:23:56;100689.81;;;42.30;15.94
61086;BME280;46967;48.876;2.136;2023-08-30T05:26:22;100691.28;;;42.43;15.53
61086;BME280;46967;48.876;2.136;2023-08-30T05:28:47;100699.75;;;42.47;15.42
61086;BME280;46967;48.876;2.136;2023-08-30T05:31:12;100702.00;;;42.55;15.80
61086;BME280;46967;48.876;2.136;2023-08-30T05:33:38;100694.72;;;42.66;15.46
61086;BME280;46967;48.876;2.136;2023-08-30T05:36:03;100692.78;;;42.61;15.57
61086;BME280;46967;48.876;2.136;2023-08-30T05:38:28;100693.97;;;42.76;15.39
61086;BME280;46967;48.876;2.136;2023-08-30T05:40:54;100704.94;;;42.48;15.65
61086;BME280;46967;48.876;2.136;2023-08-30T05:43:19;100707.94;;;42.52;15.57
61086;BME280;46967;48.876;2.136;2023-08-30T05:45:44;100707.66;;;42.48;16.30
61086;BME280;46967;48.876;2.136;2023-08-30T05:48:10;100705.06;;;41.99;16.99
61086;BME280;46967;48.876;2.136;2023-08-30T05:50:35;100698.59;;;42.10;16.89
61086;BME280;46967;48.876;2.136;2023-08-30T05:53:01;100699.28;;;41.95;17.07
61086;BME280;46967;48.876;2.136;2023-08-30T05:55:26;100703.78;;;42.39;16.69
61086;BME280;46967;48.876;2.136;2023-08-30T05:57:51;100706.69;;;42.60;16.21
61086;BME280;46967;48.876;2.136;2023-08-30T06:00:17;100696.50;;;42.50;16.79
61086;BME280;46967;48.876;2.136;2023-08-30T06:02:43;100713.34;;;42.42;16.54
61086;BME280;46967;48.876;2.136;2023-08-30T06:05:08;100706.28;;;42.83;16.05
61086;BME280;46967;48.876;2.136;2023-08-30T06:07:34;100712.72;;;42.34;16.35
61086;BME280;46967;48.876;2.136;2023-08-30T06:10:00;100703.03;;;42.49;16.30
61086;BME280;46967;48.876;2.136;2023-08-30T06:12:25;100705.91;;;42.05;16.88
61086;BME280;46967;48.876;2.136;2023-08-30T06:14:51;100704.47;;;41.97;17.00
61086;BME280;46967;48.876;2.136;2023-08-30T06:17:20;100701.34;;;42.43;16.10
61086;BME280;46967;48.876;2.136;2023-08-30T06:19:46;100702.47;;;42.47;16.31
61086;BME280;46967;48.876;2.136;2023-08-30T06:22:12;100711.09;;;41.57;17.35
61086;BME280;46967;48.876;2.136;2023-08-30T06:24:37;100711.59;;;42.58;16.50
61086;BME280;46967;48.876;2.136;2023-08-30T06:27:03;100709.66;;;42.58;16.44
61086;BME280;46967;48.876;2.136;2023-08-30T06:29:28;100707.66;;;42.16;16.83
61086;BME280;46967;48.876;2.136;2023-08-30T06:31:54;100718.47;;;42.70;16.25
61086;BME280;46967;48.876;2.136;2023-08-30T06:34:19;100712.00;;;41.85;16.88
61086;BME280;46967;48.876;2.136;2023-08-30T06:36:45;100707.50;;;42.00;16.75
61086;BME280;46967;48.876;2.136;2023-08-30T06:39:10;100710.47;;;42.59;16.28
61086;BME280;46967;48.876;2.136;2023-08-30T06:41:36;100707.72;;;42.96;15.96
61086;BME280;46967;48.876;2.136;2023-08-30T06:44:01;100715.69;;;42.00;16.72
61086;BME280;46967;48.876;2.136;2023-08-30T06:46:26;100710.28;;;41.56;16.95
61086;BME280;46967;48.876;2.136;2023-08-30T06:48:52;100712.44;;;42.31;16.51
61086;BME280;46967;48.876;2.136;2023-08-30T06:51:17;100722.94;;;42.49;16.29
61086;BME280;46967;48.876;2.136;2023-08-30T06:53:43;100715.75;;;42.38;16.83
61086;BME280;46967;48.876;2.136;2023-08-30T06:56:08;100714.91;;;42.05;16.86
61086;BME280;46967;48.876;2.136;2023-08-30T06:58:33;100714.91;;;42.32;16.52
61086;BME280;46967;48.876;2.136;2023-08-30T07:00:58;100711.22;;;42.54;16.44
61086;BME280;46967;48.876;2.136;2023-08-30T07:03:24;100716.94;;;41.88;16.75
61086;BME280;46967;48.876;2.136;2023-08-30T07:05:53;100716.28;;;42.67;16.08
61086;BME280;46967;48.876;2.136;2023-08-30T07:08:18;100723.94;;;43.13;15.86
61086;BME280;46967;48.876;2.136;2023-08-30T07:10:44;100725.94;;;42.15;16.68
61086;BME280;46967;48.876;2.136;2023-08-30T07:13:09;100732.16;;;41.89;16.76
61086;BME280;46967;48.876;2.136;2023-08-30T07:15:41;100733.94;;;42.60;16.09
61086;BME280;46967;48.876;2.136;2023-08-30T07:18:07;100724.88;;;42.54;16.05
61086;BME280;46967;48.876;2.136;2023-08-30T07:20:33;100726.34;;;43.10;15.73
61086;BME280;46967;48.876;2.136;2023-08-30T07:23:00;100720.41;;;41.83;16.52
61086;BME280;46967;48.876;2.136;2023-08-30T07:25:25;100720.22;;;42.92;16.02
61086;BME280;46967;48.876;2.136;2023-08-30T07:27:50;100725.97;;;41.93;16.68
61086;BME280;46967;48.876;2.136;2023-08-30T07:30:16;100724.13;;;41.99;16.73
61086;BME280;46967;48.876;2.136;2023-08-30T07:32:41;100722.66;;;42.83;16.23
61086;BME280;46967;48.876;2.136;2023-08-30T07:35:07;100726.75;;;43.34;15.48
61086;BME280;46967;48.876;2.136;2023-08-30T07:37:34;100722.66;;;42.83;15.79
61086;BME280;46967;48.876;2.136;2023-08-30T07:39:59;100732.13;;;42.11;16.09
61086;BME280;46967;48.876;2.136;2023-08-30T07:42:25;100728.91;;;43.32;15.05
61086;BME280;46967;48.876;2.136;2023-08-30T07:44:50;100728.78;;;42.63;16.06
61086;BME280;46967;48.876;2.136;2023-08-30T07:47:15;100737.09;;;43.32;15.51
61086;BME280;46967;48.876;2.136;2023-08-30T07:49:41;100727.66;;;43.50;15.50
61086;BME280;46967;48.876;2.136;2023-08-30T07:52:07;100727.81;;;43.22;15.78
61086;BME280;46967;48.876;2.136;2023-08-30T07:54:36;100736.13;;;43.53;15.29
61086;BME280;46967;48.876;2.136;2023-08-30T07:57:02;100732.41;;;43.22;15.46
61086;BME280;46967;48.876;2.136;2023-08-30T07:59:27;100732.31;;;43.54;15.51
61086;BME280;46967;48.876;2.136;2023-08-30T08:01:53;100734.09;;;42.85;15.55
61086;BME280;46967;48.876;2.136;2023-08-30T08:04:18;100735.69;;;42.76;15.81
61086;BME280;46967;48.876;2.136;2023-08-30T08:06:44;100733.19;;;43.75;15.27
61086;BME280;46967;48.876;2.136;2023-08-30T08:09:09;100732.22;;;44.23;14.40
61086;BME280;46967;48.876;2.136;2023-08-30T08:11:34;100742.88;;;42.87;15.70
61086;BME280;46967;48.876;2.136;2023-08-30T08:14:00;100736.94;;;43.54;15.19
61086;BME280;46967;48.876;2.136;2023-08-30T08:16:25;100726.59;;;43.56;14.73
61086;BME280;46967;48.876;2.136;2023-08-30T08:18:50;100725.91;;;44.53;13.93
61086;BME280;46967;48.876;2.136;2023-08-30T08:21:17;100728.13;;;44.30;14.12
61086;BME280;46967;48.876;2.136;2023-08-30T08:23:43;100723.81;;;43.46;14.95
61086;BME280;46967;48.876;2.136;2023-08-30T08:26:08;100737.84;;;42.69;15.07
61086;BME280;46967;48.876;2.136;2023-08-30T08:28:34;100733.72;;;43.72;14.45
61086;BME280;46967;48.876;2.136;2023-08-30T08:31:00;100737.78;;;43.59;14.83
61086;BME280;46967;48.876;2.136;2023-08-30T08:33:25;100742.31;;;44.43;14.32
61086;BME280;46967;48.876;2.136;2023-08-30T08:35:50;100737.47;;;42.55;15.01
61086;BME280;46967;48.876;2.136;2023-08-30T08:38:16;100745.53;;;43.25;14.72
61086;BME280;46967;48.876;2.136;2023-08-30T08:40:41;100742.13;;;43.50;14.39
61086;BME280;46967;48.876;2.136;2023-08-30T08:43:09;100746.66;;;42.81;14.48
61086;BME280;46967;48.876;2.136;2023-08-30T08:45:35;100752.91;;;43.19;14.45
61086;BME280;46967;48.876;2.136;2023-08-30T08:48:04;100751.00;;;43.30;14.01
61086;BME280;46967;48.876;2.136;2023-08-30T08:50:31;100746.19;;;42.25;14.41
61086;BME280;46967;48.876;2.136;2023-08-30T08:52:57;100747.47;;;41.45;14.82
61086;BME280;46967;48.876;2.136;2023-08-30T08:55:22;100738.94;;;42.41;14.25
61086;BME280;46967;48.876;2.136;2023-08-30T08:57:48;100745.69;;;41.56;14.71
61086;BME280;46967;48.876;2.136;2023-08-30T09:00:14;100745.03;;;41.93;14.55
61086;BME280;46967;48.876;2.136;2023-08-30T09:02:41;100747.75;;;42.48;14.07
61086;BME280;46967;48.876;2.136;2023-08-30T09:05:07;100741.06;;;42.06;13.76
61086;BME280;46967;48.876;2.136;2023-08-30T09:07:33;100746.16;;;41.97;14.12
61086;BME280;46967;48.876;2.136;2023-08-30T09:09:59;100745.03;;;42.21;14.16
61086;BME280;46967;48.876;2.136;2023-08-30T09:12:24;100740.75;;;42.03;13.99
61086;BME280;46967;48.876;2.136;2023-08-30T09:14:54;100738.34;;;42.06;14.07
61086;BME280;46967;48.876;2.136;2023-08-30T09:17:20;100748.97;;;40.80;14.71
61086;BME280;46967;48.876;2.136;2023-08-30T09:19:46;100736.19;;;42.68;13.39
61086;BME280;46967;48.876;2.136;2023-08-30T09:22:11;100742.53;;;43.80;12.30
61086;BME280;46967;48.876;2.136;2023-08-30T09:24:40;100754.63;;;41.74;13.55
61086;BME280;46967;48.876;2.136;2023-08-30T09:27:07;100743.00;;;42.11;12.93
61086;BME280;46967;48.876;2.136;2023-08-30T09:29:32;100754.69;;;42.98;12.60
61086;BME280;46967;48.876;2.136;2023-08-30T09:31:58;100753.13;;;43.76;12.08
61086;BME280;46967;48.876;2.136;2023-08-30T09:34:26;100751.88;;;44.30;11.39
61086;BME280;46967;48.876;2.136;2023-08-30T09:36:52;100758.81;;;43.59;12.42
61086;BME280;46967;48.876;2.136;2023-08-30T09:39:18;100747.03;;;42.58;12.77
61086;BME280;46967;48.876;2.136;2023-08-30T09:41:45;100750.44;;;42.75;12.62
61086;BME280;46967;48.876;2.136;2023-08-30T09:44:14;100740.03;;;42.40;12.74
61086;BME280;46967;48.876;2.136;2023-08-30T09:46:53;100749.81;;;41.20;12.61
61086;BME280;46967;48.876;2.136;2023-08-30T09:49:23;100745.81;;;41.05;12.90
61086;BME280;46967;48.876;2.136;2023-08-30T09:51:50;100747.94;;;41.03;12.85
61086;BME280;46967;48.876;2.136;2023-08-30T09:54:22;100752.13;;;41.28;12.12
61086;BME280;46967;48.876;2.136;2023-08-30T09:56:48;100740.97;;;42.93;11.10
61086;BME280;46967;48.876;2.136;2023-08-30T09:59:18;100745.44;;;41.19;12.36
61086;BME280;46967;48.876;2.136;2023-08-30T10:01:45;100738.72;;;41.66;12.47
61086;BME280;46967;48.876;2.136;2023-08-30T10:04:11;100730.97;;;42.61;11.69
61086;BME280;46967;48.876;2.136;2023-08-30T10:06:37;100747.59;;;41.56;12.60
61086;BME280;46967;48.876;2.136;2023-08-30T10:09:04;100745.69;;;42.06;11.20
61086;BME280;46967;48.876;2.136;2023-08-30T10:11:33;100738.94;;;42.41;11.44
61086;BME280;46967;48.876;2.136;2023-08-30T10:14:00;100741.41;;;43.17;10.78
61086;BME280;46967;48.876;2.136;2023-08-30T10:16:26;100743.19;;;41.99;11.64
61086;BME280;46967;48.876;2.136;2023-08-30T10:18:58;100749.66;;;42.85;10.95
61086;BME280;46967;48.876;2.136;2023-08-30T10:21:27;100742.94;;;42.60;10.91
61086;BME280;46967;48.876;2.136;2023-08-30T10:23:53;100750.50;;;44.07;10.63
61086;BME280;46967;48.876;2.136;2023-08-30T10:26:23;100753.94;;;43.13;11.04
61086;BME280;46967;48.876;2.136;2023-08-30T10:28:51;100757.03;;;43.95;10.40
61086;BME280;46967;48.876;2.136;2023-08-30T10:31:17;100748.34;;;44.50;10.71
61086;BME280;46967;48.876;2.136;2023-08-30T10:34:15;100748.69;;;43.54;11.18
61086;BME280;46967;48.876;2.136;2023-08-30T10:36:42;100752.13;;;41.94;12.09
61086;BME280;46967;48.876;2.136;2023-08-30T10:39:12;100734.38;;;44.00;10.70
61086;BME280;46967;48.876;2.136;2023-08-30T10:41:39;100742.91;;;42.93;11.38
61086;BME280;46967;48.876;2.136;2023-08-30T10:44:19;100735.22;;;44.21;10.65
61086;BME280;46967;48.876;2.136;2023-08-30T10:46:52;100737.09;;;44.82;10.04
61086;BME280;46967;48.876;2.136;2023-08-30T10:49:18;100733.69;;;43.57;10.39
61086;BME280;46967;48.876;2.136;2023-08-30T10:51:43;100734.41;;;44.67;9.89
61086;BME280;46967;48.876;2.136;2023-08-30T10:54:10;100735.09;;;45.24;9.65
61086;BME280;46967;48.876;2.136;2023-08-30T10:57:03;100734.88;;;45.05;9.78
61086;BME280;46967;48.876;2.136;2023-08-30T10:59:28;100732.34;;;45.19;10.02
61086;BME280;46967;48.876;2.136;2023-08-30T11:01:55;100735.63;;;43.03;11.38
61086;BME280;46967;48.876;2.136;2023-08-30T11:04:23;100745.44;;;43.63;10.06
61086;BME280;46967;48.876;2.136;2023-08-30T11:06:50;100744.88;;;42.65;11.45
61086;BME280;46967;48.876;2.136;2023-08-30T11:09:17;100734.00;;;43.07;11.41
61086;BME280;46967;48.876;2.136;2023-08-30T11:11:43;100733.28;;;44.22;10.31
61086;BME280;46967;48.876;2.136;2023-08-30T11:14:10;100735.22;;;44.26;10.50
61086;BME280;46967;48.876;2.136;2023-08-30T11:16:36;100734.66;;;44.45;10.59
61086;BME280;46967;48.876;2.136;2023-08-30T11:19:03;100736.56;;;42.82;11.28
61086;BME280;46967;48.876;2.136;2023-08-30T11:21:30;100735.16;;;43.90;10.55
61086;BME280;46967;48.876;2.136;2023-08-30T11:23:56;100732.91;;;43.72;10.74
61086;BME280;46967;48.876;2.136;2023-08-30T11:26:21;100737.44;;;42.93;11.09
61086;BME280;46967;48.876;2.136;2023-08-30T11:28:47;100725.09;;;44.58;10.78
61086;BME280;46967;48.876;2.136;2023-08-30T11:31:24;100732.22;;;44.28;10.34
61086;BME280;46967;48.876;2.136;2023-08-30T11:33:54;100724.38;;;45.88;9.78
61086;BME280;46967;48.876;2.136;2023-08-30T11:36:21;100726.16;;;44.15;10.43
61086;BME280;46967;48.876;2.136;2023-08-30T11:38:48;100726.16;;;44.41;9.87
61086;BME280;46967;48.876;2.136;2023-08-30T11:41:14;100720.16;;;44.65;9.93
61086;BME280;46967;48.876;2.136;2023-08-30T11:43:40;100724.66;;;45.86;9.59
61086;BME280;46967;48.876;2.136;2023-08-30T11:46:05;100728.50;;;45.30;9.71
61086;BME280;46967;48.876;2.136;2023-08-30T11:48:31;100735.22;;;44.26;9.77
61086;BME280;46967;48.876;2.136;2023-08-30T11:50:58;100719.53;;;45.09;9.67
61086;BME280;46967;48.876;2.136;2023-08-30T11:53:23;100712.16;;;45.10;9.87
61086;BME280;46967;48.876;2.136;2023-08-30T11:55:49;100714.06;;;45.04;9.70
61086;BME280;46967;48.876;2.136;2023-08-30T11:58:14;100718.75;;;46.38;9.32
61086;BME280;46967;48.876;2.136;2023-08-30T12:00:40;100711.94;;;44.44;9.82
61086;BME280;46967;48.876;2.136;2023-08-30T12:03:05;100712.09;;;46.15;9.22
61086;BME280;46967;48.876;2.136;2023-08-30T12:05:31;100706.75;;;46.87;8.86
61086;BME280;46967;48.876;2.136;2023-08-30T12:07:59;100716.13;;;46.86;9.08
61086;BME280;46967;48.876;2.136;2023-08-30T12:10:25;100721.78;;;45.57;9.49
61086;BME280;46967;48.876;2.136;2023-08-30T12:12:53;100712.75;;;44.55;10.51
61086;BME280;46967;48.876;2.136;2023-08-30T12:15:18;100724.53;;;44.71;10.23
61086;BME280;46967;48.876;2.136;2023-08-30T12:17:44;100721.56;;;44.62;10.65
61086;BME280;46967;48.876;2.136;2023-08-30T12:20:18;100727.78;;;44.01;10.91
61086;BME280;46967;48.876;2.136;2023-08-30T12:22:48;100734.59;;;44.91;10.63
61086;BME280;46967;48.876;2.136;2023-08-30T12:25:20;100736.19;;;40.98;12.44
61086;BME280;46967;48.876;2.136;2023-08-30T12:27:46;100733.31;;;40.70;12.17
61086;BME280;46967;48.876;2.136;2023-08-30T12:30:14;100742.03;;;41.95;11.79
61086;BME280;46967;48.876;2.136;2023-08-30T12:32:41;100737.78;;;43.01;11.53
61086;BME280;46967;48.876;2.136;2023-08-30T12:35:07;100742.72;;;43.57;10.90
61086;BME280;46967;48.876;2.136;2023-08-30T12:37:32;100743.06;;;44.95;10.02
61086;BME280;46967;48.876;2.136;2023-08-30T12:39:58;100746.13;;;44.78;10.45
61086;BME280;46967;48.876;2.136;2023-08-30T12:42:23;100739.66;;;43.49;10.79
61086;BME280;46967;48.876;2.136;2023-08-30T12:44:48;100745.38;;;42.24;11.58
61086;BME280;46967;48.876;2.136;2023-08-30T12:47:14;100734.63;;;43.99;10.08
61086;BME280;46967;48.876;2.136;2023-08-30T12:49:39;100745.84;;;44.90;9.50